sensor_id;sensor_type;location;lat;lon;timestamp;temperature;humidity
11826;DHT22;5970;48.094;11.496;2022-09-23T03:44:51;4.00;99.90
11826;DHT22;5970;48.094;11.496;2022-09-23T03:47:20;4.20;99.90
11826;DHT22;5970;48.094;11.496;2022-09-23T03:49:47;4.20;99.90
11826;DHT22;5970;48.094;11.496;2022-09-23T03:52:16;4.00;99.90
11826;DHT22;5970;48.094;11.496;2022-09-23T03:54:43;4.10;99.90
11826;DHT22;5970;48.094;11.496;2022-09-23T03:57:10;4.10;99.90
11826;DHT22;5970;48.094;11.496;2022-09-23T03:59:37;5.20;99.90
11826;DHT22;5970;48.094;11.496;2022-09-23T04:02:03;4.10;99.90
11826;DHT22;5970;48.094;11.496;2022-09-23T04:04:31;4.40;99.90
11826;DHT22;5970;48.094;11.496;2022-09-23T04:06:59;4.00;99.90
11826;DHT22;5970;48.094;11.496;2022-09-23T04:09:26;4.00;99.90
11826;DHT22;5970;48.094;11.496;2022-09-23T04:11:53;4.00;99.90
11826;DHT22;5970;48.094;11.496;2022-09-23T04:14:20;4.00;99.90
11826;DHT22;5970;48.094;11.496;2022-09-23T04:16:47;3.90;99.90
11826;DHT22;5970;48.094;11.496;2022-09-23T04:19:14;3.90;99.90
11826;DHT22;5970;48.094;11.496;2022-09-23T04:21:41;3.90;99.90
11826;DHT22;5970;48.094;11.496;2022-09-23T04:24:08;3.90;99.90
11826;DHT22;5970;48.094;11.496;2022-09-23T04:26:35;3.90;99.90
11826;DHT22;5970;48.094;11.496;2022-09-23T04:29:02;4.00;99.90
11826;DHT22;5970;48.094;11.496;2022-09-23T04:31:30;3.90;99.90
11826;DHT22;5970;48.094;11.496;2022-09-23T04:33:57;3.90;99.90
11826;DHT22;5970;48.094;11.496;2022-09-23T04:36:24;3.90;99.90
11826;DHT22;5970;48.094;11.496;2022-09-23T04:38:51;3.90;99.90
11826;DHT22;5970;48.094;11.496;2022-09-23T04:41:18;3.90;99.90
11826;DHT22;5970;48.094;11.496;2022-09-23T04:43:44;4.00;99.90
11826;DHT22;5970;48.094;11.496;2022-09-23T04:46:12;3.90;99.90
11826;DHT22;5970;48.094;11.496;2022-09-23T04:48:39;3.90;99.90
11826;DHT22;5970;48.094;11.496;2022-09-23T04:51:08;3.90;99.90
11826;DHT22;5970;48.094;11.496;2022-09-23T04:53:36;3.90;99.90
11826;DHT22;5970;48.094;11.496;2022-09-23T04:56:04;3.80;99.90
11826;DHT22;5970;48.094;11.496;2022-09-23T04:58:31;3.90;99.90
11826;DHT22;5970;48.094;11.496;2022-09-23T05:01:12;3.90;99.90
11826;DHT22;5970;48.094;11.496;2022-09-23T05:03:40;4.00;99.90
11826;DHT22;5970;48.094;11.496;2022-09-23T05:06:07;4.00;99.90
11826;DHT22;5970;48.094;11.496;2022-09-23T05:08:34;4.00;99.90
11826;DHT22;5970;48.094;11.496;2022-09-23T05:11:02;4.00;99.90
11826;DHT22;5970;48.094;11.496;2022-09-23T05:13:30;4.00;99.90
11826;DHT22;5970;48.094;11.496;2022-09-23T05:16:01;4.00;99.90
11826;DHT22;5970;48.094;11.496;2022-09-23T05:18:35;4.00;99.90
11826;DHT22;5970;48.094;11.496;2022-09-23T05:21:01;4.00;99.90
11826;DHT22;5970;48.094;11.496;2022-09-23T05:23:28;4.10;99.90
11826;DHT22;5970;48.094;11.496;2022-09-23T05:25:56;4.70;99.90
11826;DHT22;5970;48.094;11.496;2022-09-23T05:28:25;4.10;99.90
11826;DHT22;5970;48.094;11.496;2022-09-23T05:31:04;4.20;99.90
11826;DHT22;5970;48.094;11.496;2022-09-23T05:33:31;4.30;99.90
11826;DHT22;5970;48.094;11.496;2022-09-23T05:35:58;4.40;99.90
11826;DHT22;5970;48.094;11.496;2022-09-23T05:38:26;4.50;99.90
11826;DHT22;5970;48.094;11.496;2022-09-23T05:40:57;4.50;99.90
11826;DHT22;5970;48.094;11.496;2022-09-23T05:43:24;4.70;99.90
11826;DHT22;5970;48.094;11.496;2022-09-23T05:45:51;4.80;99.90
11826;DHT22;5970;48.094;11.496;2022-09-23T05:48:18;4.80;99.90
11826;DHT22;5970;48.094;11.496;2022-09-23T05:50:51;4.90;99.90
11826;DHT22;5970;48.094;11.496;2022-09-23T05:53:18;4.90;99.90
11826;DHT22;5970;48.094;11.496;2022-09-23T05:55:44;5.00;99.90
11826;DHT22;5970;48.094;11.496;2022-09-23T05:58:11;5.00;99.90
11826;DHT22;5970;48.094;11.496;2022-09-23T06:00:38;5.10;99.90
11826;DHT22;5970;48.094;11.496;2022-09-23T06:03:10;5.20;99.90
11826;DHT22;5970;48.094;11.496;2022-09-23T06:05:37;5.30;99.90
11826;DHT22;5970;48.094;11.496;2022-09-23T06:08:04;5.40;99.90
11826;DHT22;5970;48.094;11.496;2022-09-23T06:10:35;5.60;99.90
11826;DHT22;5970;48.094;11.496;2022-09-23T06:13:01;5.70;99.90
11826;DHT22;5970;48.094;11.496;2022-09-23T06:15:28;5.80;99.90
11826;DHT22;5970;48.094;11.496;2022-09-23T06:17:55;5.90;99.90
11826;DHT22;5970;48.094;11.496;2022-09-23T06:20:21;6.00;99.90
11826;DHT22;5970;48.094;11.496;2022-09-23T06:22:48;6.20;99.90
11826;DHT22;5970;48.094;11.496;2022-09-23T06:25:20;6.30;99.90
11826;DHT22;5970;48.094;11.496;2022-09-23T06:27:54;7.10;99.90
11826;DHT22;5970;48.094;11.496;2022-09-23T06:30:21;6.60;99.90
11826;DHT22;5970;48.094;11.496;2022-09-23T06:32:48;6.70;99.90
11826;DHT22;5970;48.094;11.496;2022-09-23T06:35:17;6.80;99.90
11826;DHT22;5970;48.094;11.496;2022-09-23T06:37:53;6.90;99.90
11826;DHT22;5970;48.094;11.496;2022-09-23T06:40:22;7.00;99.90
11826;DHT22;5970;48.094;11.496;2022-09-23T06:42:55;7.10;99.90
11826;DHT22;5970;48.094;11.496;2022-09-23T06:45:22;7.20;99.90
11826;DHT22;5970;48.094;11.496;2022-09-23T06:47:52;7.40;99.90
11826;DHT22;5970;48.094;11.496;2022-09-23T06:50:21;7.50;99.90
11826;DHT22;5970;48.094;11.496;2022-09-23T06:52:50;7.60;99.90
11826;DHT22;5970;48.094;11.496;2022-09-23T06:55:16;7.80;99.90
11826;DHT22;5970;48.094;11.496;2022-09-23T06:57:43;7.90;99.90
11826;DHT22;5970;48.094;11.496;2022-09-23T07:00:10;8.10;99.90
11826;DHT22;5970;48.094;11.496;2022-09-23T07:02:38;8.20;99.90
11826;DHT22;5970;48.094;11.496;2022-09-23T07:05:06;8.30;99.90
11826;DHT22;5970;48.094;11.496;2022-09-23T07:07:32;8.50;99.90
11826;DHT22;5970;48.094;11.496;2022-09-23T07:10:01;8.70;99.90
11826;DHT22;5970;48.094;11.496;2022-09-23T07:12:27;8.80;99.90
11826;DHT22;5970;48.094;11.496;2022-09-23T07:14:54;8.90;99.90
11826;DHT22;5970;48.094;11.496;2022-09-23T07:17:20;9.00;99.90
11826;DHT22;5970;48.094;11.496;2022-09-23T07:19:47;9.10;99.90
11826;DHT22;5970;48.094;11.496;2022-09-23T07:22:13;9.20;99.90
11826;DHT22;5970;48.094;11.496;2022-09-23T07:24:40;9.40;99.90
11826;DHT22;5970;48.094;11.496;2022-09-23T07:27:07;9.60;99.90
11826;DHT22;5970;48.094;11.496;2022-09-23T07:29:33;9.70;99.90
11826;DHT22;5970;48.094;11.496;2022-09-23T07:32:12;9.90;99.90
11826;DHT22;5970;48.094;11.496;2022-09-23T07:34:40;10.10;99.90
11826;DHT22;5970;48.094;11.496;2022-09-23T07:37:07;10.20;99.90
11826;DHT22;5970;48.094;11.496;2022-09-23T07:39:34;10.20;99.90
11826;DHT22;5970;48.094;11.496;2022-09-23T07:42:02;10.40;99.90
11826;DHT22;5970;48.094;11.496;2022-09-23T07:44:30;10.60;99.90
11826;DHT22;5970;48.094;11.496;2022-09-23T07:46:57;10.60;99.90
11826;DHT22;5970;48.094;11.496;2022-09-23T07:49:25;10.80;99.90
11826;DHT22;5970;48.094;11.496;2022-09-23T07:51:52;10.80;99.80
11826;DHT22;5970;48.094;11.496;2022-09-23T07:54:19;11.10;99.70
11826;DHT22;5970;48.094;11.496;2022-09-23T07:56:46;11.20;99.70
11826;DHT22;5970;48.094;11.496;2022-09-23T07:59:13;11.20;99.20
11826;DHT22;5970;48.094;11.496;2022-09-23T08:01:41;11.50;99.30
11826;DHT22;5970;48.094;11.496;2022-09-23T08:04:20;11.70;99.00
11826;DHT22;5970;48.094;11.496;2022-09-23T08:06:47;11.90;98.80
11826;DHT22;5970;48.094;11.496;2022-09-23T08:09:15;12.40;98.80
11826;DHT22;5970;48.094;11.496;2022-09-23T08:11:42;12.40;97.60
11826;DHT22;5970;48.094;11.496;2022-09-23T08:14:09;13.00;97.20
11826;DHT22;5970;48.094;11.496;2022-09-23T08:16:36;15.50;97.20
11826;DHT22;5970;48.094;11.496;2022-09-23T08:19:03;15.60;95.10
11826;DHT22;5970;48.094;11.496;2022-09-23T08:21:30;16.80;92.70
11826;DHT22;5970;48.094;11.496;2022-09-23T08:23:57;18.40;90.60
11826;DHT22;5970;48.094;11.496;2022-09-23T08:26:24;20.00;85.90
11826;DHT22;5970;48.094;11.496;2022-09-23T08:28:50;21.30;80.20
11826;DHT22;5970;48.094;11.496;2022-09-23T08:31:20;22.30;75.00
11826;DHT22;5970;48.094;11.496;2022-09-23T08:33:46;23.50;70.20
11826;DHT22;5970;48.094;11.496;2022-09-23T08:36:13;24.20;66.10
11826;DHT22;5970;48.094;11.496;2022-09-23T08:38:40;24.70;62.00
11826;DHT22;5970;48.094;11.496;2022-09-23T08:43:53;25.60;59.20
11826;DHT22;5970;48.094;11.496;2022-09-23T08:46:23;25.30;58.00
11826;DHT22;5970;48.094;11.496;2022-09-23T08:48:51;25.20;59.00
11826;DHT22;5970;48.094;11.496;2022-09-23T08:51:21;25.20;59.00
11826;DHT22;5970;48.094;11.496;2022-09-23T08:53:49;24.80;58.20
11826;DHT22;5970;48.094;11.496;2022-09-23T08:56:17;25.00;58.80
11826;DHT22;5970;48.094;11.496;2022-09-23T09:03:58;25.70;58.30
11826;DHT22;5970;48.094;11.496;2022-09-23T09:06:33;26.60;56.70
11826;DHT22;5970;48.094;11.496;2022-09-23T09:09:21;27.10;56.10
11826;DHT22;5970;48.094;11.496;2022-09-23T09:11:50;25.70;56.40
11826;DHT22;5970;48.094;11.496;2022-09-23T09:17:06;26.00;57.20
11826;DHT22;5970;48.094;11.496;2022-09-23T09:22:14;27.60;54.60
11826;DHT22;5970;48.094;11.496;2022-09-23T09:24:42;27.10;53.90
11826;DHT22;5970;48.094;11.496;2022-09-23T09:27:11;27.50;54.90
11826;DHT22;5970;48.094;11.496;2022-09-23T09:29:40;27.50;54.50
11826;DHT22;5970;48.094;11.496;2022-09-23T09:32:17;25.80;55.20
11826;DHT22;5970;48.094;11.496;2022-09-23T09:34:55;26.90;55.10
11826;DHT22;5970;48.094;11.496;2022-09-23T09:37:40;27.30;53.40
11826;DHT22;5970;48.094;11.496;2022-09-23T09:40:13;27.70;52.90
11826;DHT22;5970;48.094;11.496;2022-09-23T09:42:44;28.70;52.40
11826;DHT22;5970;48.094;11.496;2022-09-23T09:53:31;27.30;51.40
11826;DHT22;5970;48.094;11.496;2022-09-23T09:56:03;27.20;52.30
11826;DHT22;5970;48.094;11.496;2022-09-23T09:58:32;27.50;52.30
11826;DHT22;5970;48.094;11.496;2022-09-23T10:01:00;28.10;51.50
11826;DHT22;5970;48.094;11.496;2022-09-23T10:03:37;29.10;51.90
11826;DHT22;5970;48.094;11.496;2022-09-23T10:06:15;28.80;49.40
11826;DHT22;5970;48.094;11.496;2022-09-23T10:08:47;28.00;49.10
11826;DHT22;5970;48.094;11.496;2022-09-23T10:11:15;29.20;48.40
11826;DHT22;5970;48.094;11.496;2022-09-23T10:16:28;30.30;44.50
11826;DHT22;5970;48.094;11.496;2022-09-23T10:19:09;30.70;44.00
11826;DHT22;5970;48.094;11.496;2022-09-23T10:21:37;31.10;44.30
11826;DHT22;5970;48.094;11.496;2022-09-23T10:24:05;31.00;44.40
11826;DHT22;5970;48.094;11.496;2022-09-23T10:26:33;30.60;43.20
11826;DHT22;5970;48.094;11.496;2022-09-23T10:29:03;30.60;44.50
11826;DHT22;5970;48.094;11.496;2022-09-23T10:31:44;30.30;42.50
11826;DHT22;5970;48.094;11.496;2022-09-23T10:34:26;30.80;42.90
11826;DHT22;5970;48.094;11.496;2022-09-23T10:37:06;30.40;41.70
11826;DHT22;5970;48.094;11.496;2022-09-23T10:39:34;28.50;45.20
11826;DHT22;5970;48.094;11.496;2022-09-23T10:42:23;29.30;45.10
11826;DHT22;5970;48.094;11.496;2022-09-23T10:45:19;29.70;43.70
11826;DHT22;5970;48.094;11.496;2022-09-23T10:50:51;30.80;43.70
11826;DHT22;5970;48.094;11.496;2022-09-23T10:53:19;31.10;42.60
11826;DHT22;5970;48.094;11.496;2022-09-23T10:56:07;31.30;41.60
11826;DHT22;5970;48.094;11.496;2022-09-23T10:58:46;30.80;40.90
11826;DHT22;5970;48.094;11.496;2022-09-23T11:01:25;30.40;42.60
11826;DHT22;5970;48.094;11.496;2022-09-23T11:11:36;30.20;43.30
11826;DHT22;5970;48.094;11.496;2022-09-23T11:16:55;30.30;43.30
11826;DHT22;5970;48.094;11.496;2022-09-23T11:22:14;30.80;42.80
11826;DHT22;5970;48.094;11.496;2022-09-23T11:30:17;31.20;41.50
11826;DHT22;5970;48.094;11.496;2022-09-23T11:35:35;29.80;41.40
11826;DHT22;5970;48.094;11.496;2022-09-23T11:38:04;28.20;44.40
11826;DHT22;5970;48.094;11.496;2022-09-23T11:40:36;28.60;45.10
11826;DHT22;5970;48.094;11.496;2022-09-23T11:43:24;28.80;45.50
11826;DHT22;5970;48.094;11.496;2022-09-23T11:46:05;28.00;46.50
11826;DHT22;5970;48.094;11.496;2022-09-23T11:51:53;28.70;47.00
11826;DHT22;5970;48.094;11.496;2022-09-23T11:54:04;27.80;45.10
11826;DHT22;5970;48.094;11.496;2022-09-23T11:56:35;27.00;47.20
11826;DHT22;5970;48.094;11.496;2022-09-23T12:01:44;27.60;47.50
11826;DHT22;5970;48.094;11.496;2022-09-23T12:06:47;27.80;48.30
11826;DHT22;5970;48.094;11.496;2022-09-23T12:09:26;27.60;49.10
11826;DHT22;5970;48.094;11.496;2022-09-23T12:17:33;27.20;48.30
11826;DHT22;5970;48.094;11.496;2022-09-23T12:25:39;28.50;48.20
11826;DHT22;5970;48.094;11.496;2022-09-23T12:28:13;27.20;47.20
11826;DHT22;5970;48.094;11.496;2022-09-23T12:30:40;27.80;48.70
11826;DHT22;5970;48.094;11.496;2022-09-23T12:35:39;28.20;48.40
11826;DHT22;5970;48.094;11.496;2022-09-23T12:38:13;28.30;49.00
11826;DHT22;5970;48.094;11.496;2022-09-23T12:40:43;27.90;50.80
11826;DHT22;5970;48.094;11.496;2022-09-23T12:43:17;27.80;49.30
11826;DHT22;5970;48.094;11.496;2022-09-23T12:45:43;27.80;48.10
11826;DHT22;5970;48.094;11.496;2022-09-23T12:50:47;27.50;49.00
11826;DHT22;5970;48.094;11.496;2022-09-23T12:55:58;27.90;50.10
11826;DHT22;5970;48.094;11.496;2022-09-23T12:58:43;28.10;48.00
11826;DHT22;5970;48.094;11.496;2022-09-23T13:01:22;27.70;47.70
11826;DHT22;5970;48.094;11.496;2022-09-23T13:03:56;28.50;48.10
11826;DHT22;5970;48.094;11.496;2022-09-23T13:06:55;29.00;46.60
11826;DHT22;5970;48.094;11.496;2022-09-23T13:09:27;29.10;46.50
11826;DHT22;5970;48.094;11.496;2022-09-23T13:11:58;29.10;47.30
11826;DHT22;5970;48.094;11.496;2022-09-23T13:14:26;29.20;46.50
11826;DHT22;5970;48.094;11.496;2022-09-23T13:16:54;28.90;46.50
11826;DHT22;5970;48.094;11.496;2022-09-23T13:29:35;28.90;46.20
11826;DHT22;5970;48.094;11.496;2022-09-23T13:32:03;28.50;46.60
11826;DHT22;5970;48.094;11.496;2022-09-23T13:34:32;28.90;47.60
11826;DHT22;5970;48.094;11.496;2022-09-23T13:37:10;29.20;47.00
11826;DHT22;5970;48.094;11.496;2022-09-23T13:39:36;29.30;46.60
11826;DHT22;5970;48.094;11.496;2022-09-23T13:42:03;29.50;46.30
11826;DHT22;5970;48.094;11.496;2022-09-23T13:44:30;28.40;45.50
11826;DHT22;5970;48.094;11.496;2022-09-23T13:46:57;27.40;48.50
11826;DHT22;5970;48.094;11.496;2022-09-23T13:49:34;27.10;49.50
11826;DHT22;5970;48.094;11.496;2022-09-23T13:52:01;26.80;50.70
11826;DHT22;5970;48.094;11.496;2022-09-23T13:54:44;26.70;51.10
11826;DHT22;5970;48.094;11.496;2022-09-23T13:59:53;27.00;50.60
11826;DHT22;5970;48.094;11.496;2022-09-23T14:02:19;27.30;49.50
11826;DHT22;5970;48.094;11.496;2022-09-23T14:04:51;26.90;49.30
11826;DHT22;5970;48.094;11.496;2022-09-23T14:07:18;26.80;51.10
11826;DHT22;5970;48.094;11.496;2022-09-23T14:09:46;26.80;52.30
11826;DHT22;5970;48.094;11.496;2022-09-23T14:12:13;26.80;47.40
11826;DHT22;5970;48.094;11.496;2022-09-23T14:14:40;26.90;46.70
11826;DHT22;5970;48.094;11.496;2022-09-23T14:17:07;27.10;46.40
11826;DHT22;5970;48.094;11.496;2022-09-23T14:19:35;26.80;47.40
11826;DHT22;5970;48.094;11.496;2022-09-23T14:22:02;25.10;47.10
11826;DHT22;5970;48.094;11.496;2022-09-23T14:24:30;24.60;49.50
11826;DHT22;5970;48.094;11.496;2022-09-23T14:27:08;24.20;52.00
11826;DHT22;5970;48.094;11.496;2022-09-23T14:29:39;23.80;55.00
11826;DHT22;5970;48.094;11.496;2022-09-23T14:32:13;23.50;56.10
11826;DHT22;5970;48.094;11.496;2022-09-23T14:37:14;23.30;54.80
11826;DHT22;5970;48.094;11.496;2022-09-23T14:40:04;23.20;55.40
11826;DHT22;5970;48.094;11.496;2022-09-23T14:42:35;23.00;57.40
11826;DHT22;5970;48.094;11.496;2022-09-23T14:45:03;22.90;56.90
11826;DHT22;5970;48.094;11.496;2022-09-23T14:47:30;22.80;56.10
11826;DHT22;5970;48.094;11.496;2022-09-23T14:49:58;22.60;56.00
11826;DHT22;5970;48.094;11.496;2022-09-23T14:52:47;22.50;56.90
11826;DHT22;5970;48.094;11.496;2022-09-23T14:55:14;22.30;55.90
11826;DHT22;5970;48.094;11.496;2022-09-23T14:57:41;22.20;55.60
11826;DHT22;5970;48.094;11.496;2022-09-23T15:02:42;21.80;55.40
11826;DHT22;5970;48.094;11.496;2022-09-23T15:07:35;21.80;56.60
11826;DHT22;5970;48.094;11.496;2022-09-23T15:10:05;21.50;58.20
11826;DHT22;5970;48.094;11.496;2022-09-23T15:12:33;21.30;56.80
11826;DHT22;5970;48.094;11.496;2022-09-23T15:15:00;21.50;57.50
11826;DHT22;5970;48.094;11.496;2022-09-23T15:17:36;21.30;57.50
11826;DHT22;5970;48.094;11.496;2022-09-23T15:20:04;21.10;57.50
11826;DHT22;5970;48.094;11.496;2022-09-23T15:22:37;21.10;57.40
11826;DHT22;5970;48.094;11.496;2022-09-23T15:25:10;21.00;58.10
11826;DHT22;5970;48.094;11.496;2022-09-23T15:27:39;20.90;58.40
11826;DHT22;5970;48.094;11.496;2022-09-23T15:30:14;20.90;58.20
11826;DHT22;5970;48.094;11.496;2022-09-23T15:32:44;20.70;58.50
11826;DHT22;5970;48.094;11.496;2022-09-23T15:35:15;20.60;58.90
11826;DHT22;5970;48.094;11.496;2022-09-23T15:37:44;20.50;58.60
11826;DHT22;5970;48.094;11.496;2022-09-23T15:40:22;20.40;59.90
11826;DHT22;5970;48.094;11.496;2022-09-23T15:42:49;20.20;59.40
11826;DHT22;5970;48.094;11.496;2022-09-23T15:45:19;20.10;59.50
11826;DHT22;5970;48.094;11.496;2022-09-23T15:47:48;20.00;59.30
11826;DHT22;5970;48.094;11.496;2022-09-23T15:50:15;20.20;60.80
11826;DHT22;5970;48.094;11.496;2022-09-23T15:52:42;20.10;60.40
11826;DHT22;5970;48.094;11.496;2022-09-23T15:55:13;20.00;61.70
11826;DHT22;5970;48.094;11.496;2022-09-23T15:57:39;20.00;61.90
11826;DHT22;5970;48.094;11.496;2022-09-23T16:00:06;19.80;63.40
11826;DHT22;5970;48.094;11.496;2022-09-23T16:02:33;19.80;66.30
11826;DHT22;5970;48.094;11.496;2022-09-23T16:05:00;19.70;66.50
11826;DHT22;5970;48.094;11.496;2022-09-23T16:07:29;19.60;66.00
11826;DHT22;5970;48.094;11.496;2022-09-23T16:09:56;19.50;64.80
11826;DHT22;5970;48.094;11.496;2022-09-23T16:12:24;19.30;64.30
11826;DHT22;5970;48.094;11.496;2022-09-23T16:14:50;19.30;64.50
11826;DHT22;5970;48.094;11.496;2022-09-23T16:17:17;19.20;64.50
11826;DHT22;5970;48.094;11.496;2022-09-23T16:19:44;19.20;65.50
11826;DHT22;5970;48.094;11.496;2022-09-23T16:22:12;19.10;66.40
11826;DHT22;5970;48.094;11.496;2022-09-23T16:24:39;18.90;67.70
11826;DHT22;5970;48.094;11.496;2022-09-23T16:27:06;18.80;70.00
11826;DHT22;5970;48.094;11.496;2022-09-23T16:29:33;18.60;70.20
11826;DHT22;5970;48.094;11.496;2022-09-23T16:31:59;18.50;73.60
11826;DHT22;5970;48.094;11.496;2022-09-23T16:34:26;18.30;73.90
11826;DHT22;5970;48.094;11.496;2022-09-23T16:36:53;18.20;75.10
11826;DHT22;5970;48.094;11.496;2022-09-23T16:39:20;18.00;75.70
11826;DHT22;5970;48.094;11.496;2022-09-23T16:41:48;17.80;76.80
11826;DHT22;5970;48.094;11.496;2022-09-23T16:44:15;17.60;77.40
11826;DHT22;5970;48.094;11.496;2022-09-23T16:46:41;17.50;79.00
11826;DHT22;5970;48.094;11.496;2022-09-23T16:49:08;17.40;78.80
11826;DHT22;5970;48.094;11.496;2022-09-23T16:51:37;17.20;79.20
11826;DHT22;5970;48.094;11.496;2022-09-23T16:54:08;17.10;81.20
11826;DHT22;5970;48.094;11.496;2022-09-23T16:56:40;16.90;82.80
11826;DHT22;5970;48.094;11.496;2022-09-23T16:59:13;16.80;82.90
11826;DHT22;5970;48.094;11.496;2022-09-23T17:01:40;16.60;84.60
11826;DHT22;5970;48.094;11.496;2022-09-23T17:04:25;16.40;85.20
11826;DHT22;5970;48.094;11.496;2022-09-23T17:06:53;16.20;86.00
11826;DHT22;5970;48.094;11.496;2022-09-23T17:09:22;16.00;85.20
11826;DHT22;5970;48.094;11.496;2022-09-23T17:11:54;15.90;86.30
11826;DHT22;5970;48.094;11.496;2022-09-23T17:14:24;15.90;86.80
11826;DHT22;5970;48.094;11.496;2022-09-23T17:16:50;15.80;87.20
11826;DHT22;5970;48.094;11.496;2022-09-23T17:19:17;15.70;87.90
11826;DHT22;5970;48.094;11.496;2022-09-23T17:21:43;15.60;88.70
11826;DHT22;5970;48.094;11.496;2022-09-23T17:24:10;15.50;89.30
11826;DHT22;5970;48.094;11.496;2022-09-23T17:26:36;15.50;89.80
11826;DHT22;5970;48.094;11.496;2022-09-23T17:29:03;15.40;90.10
11826;DHT22;5970;48.094;11.496;2022-09-23T17:31:31;15.30;89.90
11826;DHT22;5970;48.094;11.496;2022-09-23T17:33:57;15.70;90.00
11826;DHT22;5970;48.094;11.496;2022-09-23T17:36:24;15.30;89.40
11826;DHT22;5970;48.094;11.496;2022-09-23T17:38:51;15.30;90.30
11826;DHT22;5970;48.094;11.496;2022-09-23T17:41:19;15.30;90.50
11826;DHT22;5970;48.094;11.496;2022-09-23T17:43:46;17.00;91.10
11826;DHT22;5970;48.094;11.496;2022-09-23T17:46:13;15.20;90.60
11826;DHT22;5970;48.094;11.496;2022-09-23T17:48:43;16.30;91.00
11826;DHT22;5970;48.094;11.496;2022-09-23T17:53:37;14.90;90.80
11826;DHT22;5970;48.094;11.496;2022-09-23T17:56:10;14.90;91.20
11826;DHT22;5970;48.094;11.496;2022-09-23T17:58:37;14.70;91.70
11826;DHT22;5970;48.094;11.496;2022-09-23T18:01:07;14.70;92.00
11826;DHT22;5970;48.094;11.496;2022-09-23T18:03:34;14.60;92.50
11826;DHT22;5970;48.094;11.496;2022-09-23T18:06:07;14.50;92.60
11826;DHT22;5970;48.094;11.496;2022-09-23T18:08:34;14.50;92.60
11826;DHT22;5970;48.094;11.496;2022-09-23T18:11:09;14.40;92.30
11826;DHT22;5970;48.094;11.496;2022-09-23T18:13:35;14.40;92.30
11826;DHT22;5970;48.094;11.496;2022-09-23T18:16:02;14.30;92.90
11826;DHT22;5970;48.094;11.496;2022-09-23T18:18:29;14.30;93.10
11826;DHT22;5970;48.094;11.496;2022-09-23T18:21:02;14.20;92.90
11826;DHT22;5970;48.094;11.496;2022-09-23T18:23:29;14.10;93.20
11826;DHT22;5970;48.094;11.496;2022-09-23T18:25:55;14.00;93.60
11826;DHT22;5970;48.094;11.496;2022-09-23T18:28:22;13.90;93.40
11826;DHT22;5970;48.094;11.496;2022-09-23T18:30:52;13.90;93.50
11826;DHT22;5970;48.094;11.496;2022-09-23T18:33:19;13.90;93.80
11826;DHT22;5970;48.094;11.496;2022-09-23T18:35:46;13.90;94.00
11826;DHT22;5970;48.094;11.496;2022-09-23T18:38:13;13.90;93.80
11826;DHT22;5970;48.094;11.496;2022-09-23T18:40:52;13.80;93.90
11826;DHT22;5970;48.094;11.496;2022-09-23T18:43:21;13.70;94.20
11826;DHT22;5970;48.094;11.496;2022-09-23T18:45:55;13.60;94.50
11826;DHT22;5970;48.094;11.496;2022-09-23T18:48:21;13.50;94.80
11826;DHT22;5970;48.094;11.496;2022-09-23T18:51:07;13.40;94.90
11826;DHT22;5970;48.094;11.496;2022-09-23T18:53:34;13.30;95.30
11826;DHT22;5970;48.094;11.496;2022-09-23T18:56:08;13.20;95.50
11826;DHT22;5970;48.094;11.496;2022-09-23T18:58:35;13.20;95.80
11826;DHT22;5970;48.094;11.496;2022-09-23T19:01:02;13.10;96.10
11826;DHT22;5970;48.094;11.496;2022-09-23T19:03:29;13.00;96.30
11826;DHT22;5970;48.094;11.496;2022-09-23T19:06:00;13.00;96.50
11826;DHT22;5970;48.094;11.496;2022-09-23T19:08:26;12.90;96.70
11826;DHT22;5970;48.094;11.496;2022-09-23T19:10:54;12.80;97.10
11826;DHT22;5970;48.094;11.496;2022-09-23T19:13:21;12.70;97.40
11826;DHT22;5970;48.094;11.496;2022-09-23T19:15:48;12.60;97.50
11826;DHT22;5970;48.094;11.496;2022-09-23T19:18:15;12.60;97.80
11826;DHT22;5970;48.094;11.496;2022-09-23T19:20:50;12.50;98.00
11826;DHT22;5970;48.094;11.496;2022-09-23T19:23:17;12.40;98.20
11826;DHT22;5970;48.094;11.496;2022-09-23T19:25:44;12.30;98.50
11826;DHT22;5970;48.094;11.496;2022-09-23T19:28:10;12.30;98.80
11826;DHT22;5970;48.094;11.496;2022-09-23T19:30:37;12.20;99.00
11826;DHT22;5970;48.094;11.496;2022-09-23T19:33:04;12.10;99.20
11826;DHT22;5970;48.094;11.496;2022-09-23T19:35:31;12.10;99.50
11826;DHT22;5970;48.094;11.496;2022-09-23T19:38:00;12.00;99.80
11826;DHT22;5970;48.094;11.496;2022-09-23T19:40:27;11.90;99.90
11826;DHT22;5970;48.094;11.496;2022-09-23T19:42:57;11.90;99.90
11826;DHT22;5970;48.094;11.496;2022-09-23T19:45:24;11.80;99.90
11826;DHT22;5970;48.094;11.496;2022-09-23T19:47:53;11.70;99.90
11826;DHT22;5970;48.094;11.496;2022-09-23T19:50:21;11.60;99.90
11826;DHT22;5970;48.094;11.496;2022-09-23T19:52:48;11.60;99.90
11826;DHT22;5970;48.094;11.496;2022-09-23T19:55:17;11.50;99.90
11826;DHT22;5970;48.094;11.496;2022-09-23T19:57:45;11.50;99.90
11826;DHT22;5970;48.094;11.496;2022-09-23T20:00:12;11.40;99.90
11826;DHT22;5970;48.094;11.496;2022-09-23T20:02:40;11.40;99.90
11826;DHT22;5970;48.094;11.496;2022-09-23T20:05:07;11.40;99.90
11826;DHT22;5970;48.094;11.496;2022-09-23T20:07:38;11.40;99.90
11826;DHT22;5970;48.094;11.496;2022-09-23T20:10:06;11.30;99.90
11826;DHT22;5970;48.094;11.496;2022-09-23T20:12:32;11.30;99.90
11826;DHT22;5970;48.094;11.496;2022-09-23T20:14:59;11.20;99.90
11826;DHT22;5970;48.094;11.496;2022-09-23T20:17:26;11.20;99.90
11826;DHT22;5970;48.094;11.496;2022-09-23T20:19:53;11.20;99.90
11826;DHT22;5970;48.094;11.496;2022-09-23T20:22:19;11.20;99.90
11826;DHT22;5970;48.094;11.496;2022-09-23T20:24:58;11.20;99.90
11826;DHT22;5970;48.094;11.496;2022-09-23T20:27:25;11.20;99.90
11826;DHT22;5970;48.094;11.496;2022-09-23T20:29:52;11.20;99.90
11826;DHT22;5970;48.094;11.496;2022-09-23T20:32:18;11.20;99.90
11826;DHT22;5970;48.094;11.496;2022-09-23T20:34:45;11.10;99.90
11826;DHT22;5970;48.094;11.496;2022-09-23T20:37:14;11.10;99.90
11826;DHT22;5970;48.094;11.496;2022-09-23T20:39:46;11.00;99.90
11826;DHT22;5970;48.094;11.496;2022-09-23T20:42:12;10.90;99.90
11826;DHT22;5970;48.094;11.496;2022-09-23T20:44:39;10.90;99.90
11826;DHT22;5970;48.094;11.496;2022-09-23T20:47:06;10.90;99.90
11826;DHT22;5970;48.094;11.496;2022-09-23T20:49:32;10.90;99.90
11826;DHT22;5970;48.094;11.496;2022-09-23T20:51:59;10.90;99.90
11826;DHT22;5970;48.094;11.496;2022-09-23T20:54:29;10.80;99.90
11826;DHT22;5970;48.094;11.496;2022-09-23T20:56:56;10.80;99.90
11826;DHT22;5970;48.094;11.496;2022-09-23T20:59:24;10.80;99.90
11826;DHT22;5970;48.094;11.496;2022-09-23T21:01:52;10.80;99.90
11826;DHT22;5970;48.094;11.496;2022-09-23T21:04:23;10.80;99.90
11826;DHT22;5970;48.094;11.496;2022-09-23T21:06:50;10.80;99.90
11826;DHT22;5970;48.094;11.496;2022-09-23T21:09:17;10.80;99.90
11826;DHT22;5970;48.094;11.496;2022-09-23T21:11:43;10.80;99.90